Terminal Aerodrome Forecast
Issued by NWS

Home | Current Version | Previous Version | Graphics & Text | Print | Product List | Glossary On
Versions: 1 2 3 4 5 6 7 8 9 10 11 12 13 14 15 16 17 18 19 20 21 22 23
000
FTUS43 KBIS 250500
TAFJMS
TAF
KJMS 250531Z 2506/2606 24015KT P6SM SCT025 SCT070
     FM251000 26017KT P6SM BKN025
     FM252000 30015KT P6SM BKN035
     FM260200 30007KT P6SM SCT035=

USA.gov is the U.S. government's official web portal to all federal, state and local government web resources and services.